sensor_id;sensor_type;location;lat;lon;timestamp;temperature;humidity
13673;DHT22;6909;52.202;9.876;2023-11-21T00:02:04;7.00;99.90
13673;DHT22;6909;52.202;9.876;2023-11-21T00:04:32;7.00;99.90
13673;DHT22;6909;52.202;9.876;2023-11-21T00:06:59;7.10;99.90
13673;DHT22;6909;52.202;9.876;2023-11-21T00:09:26;7.00;99.90
13673;DHT22;6909;52.202;9.876;2023-11-21T00:11:53;7.10;99.90
13673;DHT22;6909;52.202;9.876;2023-11-21T00:14:19;7.10;99.90
13673;DHT22;6909;52.202;9.876;2023-11-21T00:16:46;7.10;99.90
13673;DHT22;6909;52.202;9.876;2023-11-21T00:19:13;7.20;99.90
13673;DHT22;6909;52.202;9.876;2023-11-21T00:21:41;7.10;99.90
13673;DHT22;6909;52.202;9.876;2023-11-21T00:24:09;7.20;99.90
13673;DHT22;6909;52.202;9.876;2023-11-21T00:26:39;7.20;99.90
13673;DHT22;6909;52.202;9.876;2023-11-21T00:29:05;7.20;99.90
13673;DHT22;6909;52.202;9.876;2023-11-21T00:31:33;7.20;99.90
13673;DHT22;6909;52.202;9.876;2023-11-21T00:34:02;7.30;99.90
13673;DHT22;6909;52.202;9.876;2023-11-21T00:36:29;7.30;99.90
13673;DHT22;6909;52.202;9.876;2023-11-21T00:38:57;7.30;99.90
13673;DHT22;6909;52.202;9.876;2023-11-21T00:41:24;7.40;99.90
13673;DHT22;6909;52.202;9.876;2023-11-21T00:43:53;7.40;99.90
13673;DHT22;6909;52.202;9.876;2023-11-21T00:46:20;7.40;99.90
13673;DHT22;6909;52.202;9.876;2023-11-21T00:48:47;7.40;99.90
13673;DHT22;6909;52.202;9.876;2023-11-21T00:51:14;7.40;99.90
13673;DHT22;6909;52.202;9.876;2023-11-21T00:53:40;7.40;99.90
13673;DHT22;6909;52.202;9.876;2023-11-21T00:56:08;7.40;99.90
13673;DHT22;6909;52.202;9.876;2023-11-21T00:58:35;7.40;99.90
13673;DHT22;6909;52.202;9.876;2023-11-21T01:01:02;7.40;99.90
13673;DHT22;6909;52.202;9.876;2023-11-21T01:03:29;7.40;99.90
13673;DHT22;6909;52.202;9.876;2023-11-21T01:05:55;7.30;99.90
13673;DHT22;6909;52.202;9.876;2023-11-21T01:08:22;7.30;99.90
13673;DHT22;6909;52.202;9.876;2023-11-21T01:10:49;7.30;99.90
13673;DHT22;6909;52.202;9.876;2023-11-21T01:13:18;7.30;99.90
13673;DHT22;6909;52.202;9.876;2023-11-21T01:15:44;7.30;99.90
13673;DHT22;6909;52.202;9.876;2023-11-21T01:18:11;7.40;99.90
13673;DHT22;6909;52.202;9.876;2023-11-21T01:20:38;7.40;99.90
13673;DHT22;6909;52.202;9.876;2023-11-21T01:23:05;7.40;99.90
13673;DHT22;6909;52.202;9.876;2023-11-21T01:25:32;7.40;99.90
13673;DHT22;6909;52.202;9.876;2023-11-21T01:27:59;7.40;99.90
13673;DHT22;6909;52.202;9.876;2023-11-21T01:30:27;7.50;99.90
13673;DHT22;6909;52.202;9.876;2023-11-21T01:32:53;7.50;99.90
13673;DHT22;6909;52.202;9.876;2023-11-21T01:35:20;7.50;99.90
13673;DHT22;6909;52.202;9.876;2023-11-21T01:37:47;7.50;99.90
13673;DHT22;6909;52.202;9.876;2023-11-21T01:40:14;7.50;99.90
13673;DHT22;6909;52.202;9.876;2023-11-21T01:42:41;7.50;99.90
13673;DHT22;6909;52.202;9.876;2023-11-21T01:45:09;7.50;99.90
13673;DHT22;6909;52.202;9.876;2023-11-21T01:47:40;7.60;99.90
13673;DHT22;6909;52.202;9.876;2023-11-21T01:50:08;7.60;99.90
13673;DHT22;6909;52.202;9.876;2023-11-21T01:52:38;7.60;99.90
13673;DHT22;6909;52.202;9.876;2023-11-21T01:55:07;7.60;99.90
13673;DHT22;6909;52.202;9.876;2023-11-21T01:57:35;7.60;99.90
13673;DHT22;6909;52.202;9.876;2023-11-21T02:00:04;7.60;99.90
13673;DHT22;6909;52.202;9.876;2023-11-21T02:02:42;7.60;99.90
13673;DHT22;6909;52.202;9.876;2023-11-21T02:05:09;7.70;99.90
13673;DHT22;6909;52.202;9.876;2023-11-21T02:07:38;7.70;99.90
13673;DHT22;6909;52.202;9.876;2023-11-21T02:10:06;7.70;99.90
13673;DHT22;6909;52.202;9.876;2023-11-21T02:12:33;7.70;99.90
13673;DHT22;6909;52.202;9.876;2023-11-21T02:15:00;7.70;99.90
13673;DHT22;6909;52.202;9.876;2023-11-21T02:17:28;7.80;99.90
13673;DHT22;6909;52.202;9.876;2023-11-21T02:19:56;7.70;99.90
13673;DHT22;6909;52.202;9.876;2023-11-21T02:22:23;7.70;99.90
13673;DHT22;6909;52.202;9.876;2023-11-21T02:24:53;7.70;99.90
13673;DHT22;6909;52.202;9.876;2023-11-21T02:27:20;7.70;99.90
13673;DHT22;6909;52.202;9.876;2023-11-21T02:29:49;7.70;99.90
13673;DHT22;6909;52.202;9.876;2023-11-21T02:32:15;7.70;99.90
13673;DHT22;6909;52.202;9.876;2023-11-21T02:34:44;7.70;99.90
13673;DHT22;6909;52.202;9.876;2023-11-21T02:37:11;7.70;99.90
13673;DHT22;6909;52.202;9.876;2023-11-21T02:39:38;7.60;99.90
13673;DHT22;6909;52.202;9.876;2023-11-21T02:42:06;7.70;99.90
13673;DHT22;6909;52.202;9.876;2023-11-21T02:44:34;7.70;99.90
13673;DHT22;6909;52.202;9.876;2023-11-21T02:47:01;7.70;99.90
13673;DHT22;6909;52.202;9.876;2023-11-21T02:49:28;7.70;99.90
13673;DHT22;6909;52.202;9.876;2023-11-21T02:51:55;7.70;99.90
13673;DHT22;6909;52.202;9.876;2023-11-21T02:54:21;7.70;99.90
13673;DHT22;6909;52.202;9.876;2023-11-21T02:56:48;7.70;99.90
13673;DHT22;6909;52.202;9.876;2023-11-21T02:59:17;7.70;99.90
13673;DHT22;6909;52.202;9.876;2023-11-21T03:01:45;7.70;99.90
13673;DHT22;6909;52.202;9.876;2023-11-21T03:04:12;7.70;99.90
13673;DHT22;6909;52.202;9.876;2023-11-21T03:06:43;7.70;99.90
13673;DHT22;6909;52.202;9.876;2023-11-21T03:09:10;7.70;99.90
13673;DHT22;6909;52.202;9.876;2023-11-21T03:11:37;7.70;99.90
13673;DHT22;6909;52.202;9.876;2023-11-21T03:14:04;7.60;99.90
13673;DHT22;6909;52.202;9.876;2023-11-21T03:16:33;7.60;99.90
13673;DHT22;6909;52.202;9.876;2023-11-21T03:19:00;7.60;99.90
13673;DHT22;6909;52.202;9.876;2023-11-21T03:21:26;7.60;99.90
13673;DHT22;6909;52.202;9.876;2023-11-21T03:23:53;7.60;99.90
13673;DHT22;6909;52.202;9.876;2023-11-21T03:26:20;7.60;99.90
13673;DHT22;6909;52.202;9.876;2023-11-21T03:28:47;7.60;99.90
13673;DHT22;6909;52.202;9.876;2023-11-21T03:31:13;7.60;99.90
13673;DHT22;6909;52.202;9.876;2023-11-21T03:33:44;7.60;99.90
13673;DHT22;6909;52.202;9.876;2023-11-21T03:36:11;7.60;99.90
13673;DHT22;6909;52.202;9.876;2023-11-21T03:38:38;7.60;99.90
13673;DHT22;6909;52.202;9.876;2023-11-21T03:41:05;7.60;99.90
13673;DHT22;6909;52.202;9.876;2023-11-21T03:43:32;7.60;99.90
13673;DHT22;6909;52.202;9.876;2023-11-21T03:45:59;7.60;99.90
13673;DHT22;6909;52.202;9.876;2023-11-21T03:48:26;7.60;99.90
13673;DHT22;6909;52.202;9.876;2023-11-21T03:50:54;7.60;99.90
13673;DHT22;6909;52.202;9.876;2023-11-21T03:53:20;7.60;99.90
13673;DHT22;6909;52.202;9.876;2023-11-21T03:55:47;7.60;99.90
13673;DHT22;6909;52.202;9.876;2023-11-21T03:58:14;7.60;99.90
13673;DHT22;6909;52.202;9.876;2023-11-21T04:00:41;7.60;99.90
13673;DHT22;6909;52.202;9.876;2023-11-21T04:03:08;7.60;99.90
13673;DHT22;6909;52.202;9.876;2023-11-21T04:05:35;7.60;99.90
13673;DHT22;6909;52.202;9.876;2023-11-21T04:08:03;7.60;99.90
13673;DHT22;6909;52.202;9.876;2023-11-21T04:10:30;7.60;99.90
13673;DHT22;6909;52.202;9.876;2023-11-21T04:12:57;7.60;99.90
13673;DHT22;6909;52.202;9.876;2023-11-21T04:15:23;7.60;99.90
13673;DHT22;6909;52.202;9.876;2023-11-21T04:17:50;7.60;99.90
13673;DHT22;6909;52.202;9.876;2023-11-21T04:20:17;7.60;99.90
13673;DHT22;6909;52.202;9.876;2023-11-21T04:22:44;7.60;99.90
13673;DHT22;6909;52.202;9.876;2023-11-21T04:25:14;7.60;99.90
13673;DHT22;6909;52.202;9.876;2023-11-21T04:27:41;7.60;99.90
13673;DHT22;6909;52.202;9.876;2023-11-21T04:30:10;7.60;99.90
13673;DHT22;6909;52.202;9.876;2023-11-21T04:32:37;7.60;99.90
13673;DHT22;6909;52.202;9.876;2023-11-21T04:35:05;7.60;99.90
13673;DHT22;6909;52.202;9.876;2023-11-21T04:37:32;7.60;99.90
13673;DHT22;6909;52.202;9.876;2023-11-21T04:39:59;7.60;99.90
13673;DHT22;6909;52.202;9.876;2023-11-21T04:42:27;7.60;99.90
13673;DHT22;6909;52.202;9.876;2023-11-21T04:44:54;7.60;99.90
13673;DHT22;6909;52.202;9.876;2023-11-21T04:47:21;7.60;99.90
13673;DHT22;6909;52.202;9.876;2023-11-21T04:49:47;7.60;99.90
13673;DHT22;6909;52.202;9.876;2023-11-21T04:52:14;7.60;99.90
13673;DHT22;6909;52.202;9.876;2023-11-21T04:54:41;7.70;99.90
13673;DHT22;6909;52.202;9.876;2023-11-21T04:57:08;7.70;99.90
13673;DHT22;6909;52.202;9.876;2023-11-21T04:59:36;7.70;99.90
13673;DHT22;6909;52.202;9.876;2023-11-21T05:02:03;7.70;99.90
13673;DHT22;6909;52.202;9.876;2023-11-21T05:04:30;7.70;99.90
13673;DHT22;6909;52.202;9.876;2023-11-21T05:06:57;7.70;99.90
13673;DHT22;6909;52.202;9.876;2023-11-21T05:09:24;7.70;99.90
13673;DHT22;6909;52.202;9.876;2023-11-21T05:11:51;7.70;99.90
13673;DHT22;6909;52.202;9.876;2023-11-21T05:14:18;7.70;99.90
13673;DHT22;6909;52.202;9.876;2023-11-21T05:16:47;7.70;99.90
13673;DHT22;6909;52.202;9.876;2023-11-21T05:19:13;7.70;99.90
13673;DHT22;6909;52.202;9.876;2023-11-21T05:21:40;7.70;99.90
13673;DHT22;6909;52.202;9.876;2023-11-21T05:24:07;7.70;99.90
13673;DHT22;6909;52.202;9.876;2023-11-21T05:26:34;7.70;99.90
13673;DHT22;6909;52.202;9.876;2023-11-21T05:29:01;7.70;99.90
13673;DHT22;6909;52.202;9.876;2023-11-21T05:31:28;7.80;99.90
13673;DHT22;6909;52.202;9.876;2023-11-21T05:33:56;7.70;99.90
13673;DHT22;6909;52.202;9.876;2023-11-21T05:36:23;7.70;99.90
13673;DHT22;6909;52.202;9.876;2023-11-21T05:38:49;7.70;99.90
13673;DHT22;6909;52.202;9.876;2023-11-21T05:41:16;7.70;99.90
13673;DHT22;6909;52.202;9.876;2023-11-21T05:43:43;7.70;99.90
13673;DHT22;6909;52.202;9.876;2023-11-21T05:46:10;7.80;99.90
13673;DHT22;6909;52.202;9.876;2023-11-21T05:48:36;7.90;99.90
13673;DHT22;6909;52.202;9.876;2023-11-21T05:51:06;7.90;99.90
13673;DHT22;6909;52.202;9.876;2023-11-21T05:53:33;7.90;99.90
13673;DHT22;6909;52.202;9.876;2023-11-21T05:56:00;7.90;99.90
13673;DHT22;6909;52.202;9.876;2023-11-21T05:58:27;7.80;99.90
13673;DHT22;6909;52.202;9.876;2023-11-21T06:00:53;7.80;99.90
13673;DHT22;6909;52.202;9.876;2023-11-21T06:03:20;7.80;99.90
13673;DHT22;6909;52.202;9.876;2023-11-21T06:05:48;7.90;99.90
13673;DHT22;6909;52.202;9.876;2023-11-21T06:08:16;7.80;99.90
13673;DHT22;6909;52.202;9.876;2023-11-21T06:10:44;7.80;99.90
13673;DHT22;6909;52.202;9.876;2023-11-21T06:13:14;7.80;99.90
13673;DHT22;6909;52.202;9.876;2023-11-21T06:15:41;7.80;99.90
13673;DHT22;6909;52.202;9.876;2023-11-21T06:18:08;7.90;99.90
13673;DHT22;6909;52.202;9.876;2023-11-21T06:20:36;7.80;99.90
13673;DHT22;6909;52.202;9.876;2023-11-21T06:23:03;7.80;99.90
13673;DHT22;6909;52.202;9.876;2023-11-21T06:25:32;7.80;99.90
13673;DHT22;6909;52.202;9.876;2023-11-21T06:28:01;7.80;99.90
13673;DHT22;6909;52.202;9.876;2023-11-21T06:30:28;7.80;99.90
13673;DHT22;6909;52.202;9.876;2023-11-21T06:32:55;7.80;99.90
13673;DHT22;6909;52.202;9.876;2023-11-21T06:35:22;7.80;99.90
13673;DHT22;6909;52.202;9.876;2023-11-21T06:37:49;7.80;99.90
13673;DHT22;6909;52.202;9.876;2023-11-21T06:40:17;7.80;99.90
13673;DHT22;6909;52.202;9.876;2023-11-21T06:42:46;7.80;99.90
13673;DHT22;6909;52.202;9.876;2023-11-21T06:45:13;7.80;99.90
13673;DHT22;6909;52.202;9.876;2023-11-21T06:47:40;7.90;99.90
13673;DHT22;6909;52.202;9.876;2023-11-21T06:50:08;7.90;99.90
13673;DHT22;6909;52.202;9.876;2023-11-21T06:52:34;7.90;99.90
13673;DHT22;6909;52.202;9.876;2023-11-21T06:55:01;7.90;99.90
13673;DHT22;6909;52.202;9.876;2023-11-21T06:57:28;7.90;99.90
13673;DHT22;6909;52.202;9.876;2023-11-21T06:59:56;7.80;99.90
13673;DHT22;6909;52.202;9.876;2023-11-21T07:02:23;7.80;99.90
13673;DHT22;6909;52.202;9.876;2023-11-21T07:04:50;7.80;99.90
13673;DHT22;6909;52.202;9.876;2023-11-21T07:07:18;7.90;99.90
13673;DHT22;6909;52.202;9.876;2023-11-21T07:09:45;7.80;99.90
13673;DHT22;6909;52.202;9.876;2023-11-21T07:12:11;7.90;99.90
13673;DHT22;6909;52.202;9.876;2023-11-21T07:14:39;7.90;99.90
13673;DHT22;6909;52.202;9.876;2023-11-21T07:17:10;7.90;99.90
13673;DHT22;6909;52.202;9.876;2023-11-21T07:19:40;7.90;99.90
13673;DHT22;6909;52.202;9.876;2023-11-21T07:22:07;7.80;99.90
13673;DHT22;6909;52.202;9.876;2023-11-21T07:24:34;7.80;99.90
13673;DHT22;6909;52.202;9.876;2023-11-21T07:27:02;7.80;99.90
13673;DHT22;6909;52.202;9.876;2023-11-21T07:29:30;7.80;99.90
13673;DHT22;6909;52.202;9.876;2023-11-21T07:31:57;7.80;99.90
13673;DHT22;6909;52.202;9.876;2023-11-21T07:34:25;7.70;99.90
13673;DHT22;6909;52.202;9.876;2023-11-21T07:36:51;7.40;99.90
13673;DHT22;6909;52.202;9.876;2023-11-21T07:39:18;7.10;99.90
13673;DHT22;6909;52.202;9.876;2023-11-21T07:41:45;6.90;99.90
13673;DHT22;6909;52.202;9.876;2023-11-21T07:44:14;6.90;99.90
13673;DHT22;6909;52.202;9.876;2023-11-21T07:46:41;6.80;99.90
13673;DHT22;6909;52.202;9.876;2023-11-21T07:49:07;6.80;99.90
13673;DHT22;6909;52.202;9.876;2023-11-21T07:51:36;6.80;99.90
13673;DHT22;6909;52.202;9.876;2023-11-21T07:54:03;6.80;99.90
13673;DHT22;6909;52.202;9.876;2023-11-21T07:56:31;6.80;99.90
13673;DHT22;6909;52.202;9.876;2023-11-21T07:58:57;6.70;99.90
13673;DHT22;6909;52.202;9.876;2023-11-21T08:01:24;6.80;99.90
13673;DHT22;6909;52.202;9.876;2023-11-21T08:03:53;6.80;99.90
13673;DHT22;6909;52.202;9.876;2023-11-21T08:06:22;6.80;99.90
13673;DHT22;6909;52.202;9.876;2023-11-21T08:08:50;6.80;99.90
13673;DHT22;6909;52.202;9.876;2023-11-21T08:11:17;6.70;99.90
13673;DHT22;6909;52.202;9.876;2023-11-21T08:13:45;6.60;99.90
13673;DHT22;6909;52.202;9.876;2023-11-21T08:16:12;6.60;99.90
13673;DHT22;6909;52.202;9.876;2023-11-21T08:18:39;6.60;99.90
13673;DHT22;6909;52.202;9.876;2023-11-21T08:21:06;6.50;99.90
13673;DHT22;6909;52.202;9.876;2023-11-21T08:23:33;6.50;99.90
13673;DHT22;6909;52.202;9.876;2023-11-21T08:26:02;6.40;99.90
13673;DHT22;6909;52.202;9.876;2023-11-21T08:28:29;6.40;99.90
13673;DHT22;6909;52.202;9.876;2023-11-21T08:30:56;6.40;99.90
13673;DHT22;6909;52.202;9.876;2023-11-21T08:33:22;6.40;99.90
13673;DHT22;6909;52.202;9.876;2023-11-21T08:35:49;6.30;99.90
13673;DHT22;6909;52.202;9.876;2023-11-21T08:38:16;6.30;99.90
13673;DHT22;6909;52.202;9.876;2023-11-21T08:40:43;6.30;99.90
13673;DHT22;6909;52.202;9.876;2023-11-21T08:43:11;6.30;99.90
13673;DHT22;6909;52.202;9.876;2023-11-21T08:45:40;6.30;99.90
13673;DHT22;6909;52.202;9.876;2023-11-21T08:48:07;6.30;99.90
13673;DHT22;6909;52.202;9.876;2023-11-21T08:50:34;6.30;99.90
13673;DHT22;6909;52.202;9.876;2023-11-21T08:53:00;6.30;99.90
13673;DHT22;6909;52.202;9.876;2023-11-21T08:55:27;6.20;99.90
13673;DHT22;6909;52.202;9.876;2023-11-21T08:57:54;6.20;99.90
13673;DHT22;6909;52.202;9.876;2023-11-21T09:00:22;6.20;99.90
13673;DHT22;6909;52.202;9.876;2023-11-21T09:02:49;6.20;99.90
13673;DHT22;6909;52.202;9.876;2023-11-21T09:05:15;6.20;99.90
13673;DHT22;6909;52.202;9.876;2023-11-21T09:07:43;6.10;99.90
13673;DHT22;6909;52.202;9.876;2023-11-21T09:10:11;6.10;99.90
13673;DHT22;6909;52.202;9.876;2023-11-21T09:12:38;6.10;99.90
13673;DHT22;6909;52.202;9.876;2023-11-21T09:15:06;6.10;99.90
13673;DHT22;6909;52.202;9.876;2023-11-21T09:17:34;6.10;99.90
13673;DHT22;6909;52.202;9.876;2023-11-21T09:20:01;6.10;99.90
13673;DHT22;6909;52.202;9.876;2023-11-21T09:22:31;6.20;99.90
13673;DHT22;6909;52.202;9.876;2023-11-21T09:24:57;6.20;99.90
13673;DHT22;6909;52.202;9.876;2023-11-21T09:27:24;6.10;99.90
13673;DHT22;6909;52.202;9.876;2023-11-21T09:29:52;6.10;99.90
13673;DHT22;6909;52.202;9.876;2023-11-21T09:32:20;6.10;99.90
13673;DHT22;6909;52.202;9.876;2023-11-21T09:34:48;6.10;99.90
13673;DHT22;6909;52.202;9.876;2023-11-21T09:37:15;5.90;99.90
13673;DHT22;6909;52.202;9.876;2023-11-21T09:39:42;5.90;99.90
13673;DHT22;6909;52.202;9.876;2023-11-21T09:42:10;5.90;99.90
13673;DHT22;6909;52.202;9.876;2023-11-21T09:44:46;6.00;99.90
13673;DHT22;6909;52.202;9.876;2023-11-21T09:47:15;6.00;99.90
13673;DHT22;6909;52.202;9.876;2023-11-21T09:49:46;6.00;99.90
13673;DHT22;6909;52.202;9.876;2023-11-21T09:52:21;6.00;99.90
13673;DHT22;6909;52.202;9.876;2023-11-21T09:54:51;6.00;99.90
13673;DHT22;6909;52.202;9.876;2023-11-21T09:57:19;6.20;99.90
13673;DHT22;6909;52.202;9.876;2023-11-21T09:59:47;6.30;99.90
13673;DHT22;6909;52.202;9.876;2023-11-21T10:02:16;6.40;99.90
13673;DHT22;6909;52.202;9.876;2023-11-21T10:04:44;6.50;99.90
13673;DHT22;6909;52.202;9.876;2023-11-21T10:07:11;6.60;99.90
13673;DHT22;6909;52.202;9.876;2023-11-21T10:09:42;6.60;99.90
13673;DHT22;6909;52.202;9.876;2023-11-21T10:12:10;6.60;99.90
13673;DHT22;6909;52.202;9.876;2023-11-21T10:14:40;6.60;99.90
13673;DHT22;6909;52.202;9.876;2023-11-21T10:17:08;6.70;99.90
13673;DHT22;6909;52.202;9.876;2023-11-21T10:19:38;6.70;99.90
13673;DHT22;6909;52.202;9.876;2023-11-21T10:22:05;6.70;99.90
13673;DHT22;6909;52.202;9.876;2023-11-21T10:24:34;6.70;99.90
13673;DHT22;6909;52.202;9.876;2023-11-21T10:27:04;6.70;99.90
13673;DHT22;6909;52.202;9.876;2023-11-21T10:29:30;6.70;99.90
13673;DHT22;6909;52.202;9.876;2023-11-21T10:32:02;6.80;99.90
13673;DHT22;6909;52.202;9.876;2023-11-21T10:34:29;6.80;99.90
13673;DHT22;6909;52.202;9.876;2023-11-21T10:36:56;6.90;99.90
13673;DHT22;6909;52.202;9.876;2023-11-21T10:39:24;6.90;99.90
13673;DHT22;6909;52.202;9.876;2023-11-21T10:41:55;6.90;99.90
13673;DHT22;6909;52.202;9.876;2023-11-21T10:44:23;6.80;99.90
13673;DHT22;6909;52.202;9.876;2023-11-21T10:46:52;6.90;99.90
13673;DHT22;6909;52.202;9.876;2023-11-21T10:49:21;6.80;99.90
13673;DHT22;6909;52.202;9.876;2023-11-21T10:51:50;6.90;99.90
13673;DHT22;6909;52.202;9.876;2023-11-21T10:54:19;6.80;99.90
13673;DHT22;6909;52.202;9.876;2023-11-21T10:56:49;6.80;99.90
13673;DHT22;6909;52.202;9.876;2023-11-21T10:59:17;6.90;99.90
13673;DHT22;6909;52.202;9.876;2023-11-21T11:01:47;6.90;99.90
13673;DHT22;6909;52.202;9.876;2023-11-21T11:04:18;6.80;99.90
13673;DHT22;6909;52.202;9.876;2023-11-21T11:06:46;6.80;99.90
13673;DHT22;6909;52.202;9.876;2023-11-21T11:09:17;6.80;99.90
13673;DHT22;6909;52.202;9.876;2023-11-21T11:11:44;6.80;99.90
13673;DHT22;6909;52.202;9.876;2023-11-21T11:14:12;6.80;99.90
13673;DHT22;6909;52.202;9.876;2023-11-21T11:16:40;6.80;99.90
13673;DHT22;6909;52.202;9.876;2023-11-21T11:19:10;6.90;99.90
13673;DHT22;6909;52.202;9.876;2023-11-21T11:21:46;7.00;99.90
13673;DHT22;6909;52.202;9.876;2023-11-21T11:24:28;6.90;99.90
13673;DHT22;6909;52.202;9.876;2023-11-21T11:27:01;6.80;99.90
13673;DHT22;6909;52.202;9.876;2023-11-21T11:29:36;6.80;99.90
13673;DHT22;6909;52.202;9.876;2023-11-21T11:32:13;6.90;99.90
13673;DHT22;6909;52.202;9.876;2023-11-21T11:34:48;6.90;99.90
13673;DHT22;6909;52.202;9.876;2023-11-21T11:37:19;6.90;99.90
13673;DHT22;6909;52.202;9.876;2023-11-21T11:39:46;6.90;99.90
13673;DHT22;6909;52.202;9.876;2023-11-21T11:42:16;6.90;99.90
13673;DHT22;6909;52.202;9.876;2023-11-21T11:44:47;6.90;99.90
13673;DHT22;6909;52.202;9.876;2023-11-21T11:47:19;6.90;99.90
13673;DHT22;6909;52.202;9.876;2023-11-21T11:50:02;7.00;99.90
13673;DHT22;6909;52.202;9.876;2023-11-21T11:52:38;7.10;99.90
13673;DHT22;6909;52.202;9.876;2023-11-21T11:55:08;7.10;99.90
13673;DHT22;6909;52.202;9.876;2023-11-21T11:57:37;7.10;99.90
13673;DHT22;6909;52.202;9.876;2023-11-21T12:00:12;7.10;99.90
13673;DHT22;6909;52.202;9.876;2023-11-21T12:02:42;7.00;99.90
13673;DHT22;6909;52.202;9.876;2023-11-21T12:05:13;7.10;99.90
13673;DHT22;6909;52.202;9.876;2023-11-21T12:07:44;7.20;99.90
13673;DHT22;6909;52.202;9.876;2023-11-21T12:10:15;7.20;99.90
13673;DHT22;6909;52.202;9.876;2023-11-21T12:12:47;7.10;99.90
13673;DHT22;6909;52.202;9.876;2023-11-21T12:15:14;7.10;99.90
13673;DHT22;6909;52.202;9.876;2023-11-21T12:17:42;7.00;99.90
13673;DHT22;6909;52.202;9.876;2023-11-21T12:20:11;7.10;99.90
13673;DHT22;6909;52.202;9.876;2023-11-21T12:22:43;7.10;99.90
13673;DHT22;6909;52.202;9.876;2023-11-21T12:25:13;7.10;99.90
13673;DHT22;6909;52.202;9.876;2023-11-21T12:27:42;7.20;99.90
13673;DHT22;6909;52.202;9.876;2023-11-21T12:30:11;7.30;99.90
13673;DHT22;6909;52.202;9.876;2023-11-21T12:32:41;7.20;99.90
13673;DHT22;6909;52.202;9.876;2023-11-21T12:35:09;7.20;99.90
13673;DHT22;6909;52.202;9.876;2023-11-21T12:37:37;7.20;99.90
13673;DHT22;6909;52.202;9.876;2023-11-21T12:40:06;7.30;99.90
13673;DHT22;6909;52.202;9.876;2023-11-21T12:42:33;7.20;99.90
13673;DHT22;6909;52.202;9.876;2023-11-21T12:45:08;7.20;99.90
13673;DHT22;6909;52.202;9.876;2023-11-21T12:47:40;7.10;99.90
13673;DHT22;6909;52.202;9.876;2023-11-21T12:50:08;7.10;99.90
13673;DHT22;6909;52.202;9.876;2023-11-21T12:52:41;7.10;99.90
13673;DHT22;6909;52.202;9.876;2023-11-21T12:55:13;7.10;99.90
13673;DHT22;6909;52.202;9.876;2023-11-21T12:57:44;7.20;99.90
13673;DHT22;6909;52.202;9.876;2023-11-21T13:00:13;7.10;99.90
13673;DHT22;6909;52.202;9.876;2023-11-21T13:02:51;7.00;99.90
13673;DHT22;6909;52.202;9.876;2023-11-21T13:05:27;7.00;99.90
13673;DHT22;6909;52.202;9.876;2023-11-21T13:07:57;7.00;99.90
13673;DHT22;6909;52.202;9.876;2023-11-21T13:10:26;7.00;99.90
13673;DHT22;6909;52.202;9.876;2023-11-21T13:12:56;7.10;99.90
13673;DHT22;6909;52.202;9.876;2023-11-21T13:15:25;7.10;99.90
13673;DHT22;6909;52.202;9.876;2023-11-21T13:17:53;7.10;99.90
13673;DHT22;6909;52.202;9.876;2023-11-21T13:20:21;7.10;99.90
13673;DHT22;6909;52.202;9.876;2023-11-21T13:22:50;7.10;99.90
13673;DHT22;6909;52.202;9.876;2023-11-21T13:25:21;7.20;99.90
13673;DHT22;6909;52.202;9.876;2023-11-21T13:27:48;7.20;99.90
13673;DHT22;6909;52.202;9.876;2023-11-21T13:30:16;7.10;99.90
13673;DHT22;6909;52.202;9.876;2023-11-21T13:32:44;7.10;99.90
13673;DHT22;6909;52.202;9.876;2023-11-21T13:35:11;7.00;99.90
13673;DHT22;6909;52.202;9.876;2023-11-21T13:37:48;7.00;99.90
13673;DHT22;6909;52.202;9.876;2023-11-21T13:40:21;6.90;99.90
13673;DHT22;6909;52.202;9.876;2023-11-21T13:42:51;6.90;99.90
13673;DHT22;6909;52.202;9.876;2023-11-21T13:45:20;6.90;99.90
13673;DHT22;6909;52.202;9.876;2023-11-21T13:47:48;6.90;99.90
13673;DHT22;6909;52.202;9.876;2023-11-21T13:50:16;6.90;99.90
13673;DHT22;6909;52.202;9.876;2023-11-21T13:52:48;6.90;99.90
13673;DHT22;6909;52.202;9.876;2023-11-21T13:55:15;7.00;99.90
13673;DHT22;6909;52.202;9.876;2023-11-21T13:57:43;7.00;99.90
13673;DHT22;6909;52.202;9.876;2023-11-21T14:00:13;7.00;99.90
13673;DHT22;6909;52.202;9.876;2023-11-21T14:03:01;7.00;99.90
13673;DHT22;6909;52.202;9.876;2023-11-21T14:05:33;7.10;99.90
13673;DHT22;6909;52.202;9.876;2023-11-21T14:08:00;7.10;99.90
13673;DHT22;6909;52.202;9.876;2023-11-21T14:10:30;7.10;99.90
13673;DHT22;6909;52.202;9.876;2023-11-21T14:13:06;7.00;99.90
13673;DHT22;6909;52.202;9.876;2023-11-21T14:15:35;7.10;99.90
13673;DHT22;6909;52.202;9.876;2023-11-21T14:18:07;7.10;99.90
13673;DHT22;6909;52.202;9.876;2023-11-21T14:20:36;7.10;99.90
13673;DHT22;6909;52.202;9.876;2023-11-21T14:23:03;7.00;99.90
13673;DHT22;6909;52.202;9.876;2023-11-21T14:25:29;7.00;99.90
13673;DHT22;6909;52.202;9.876;2023-11-21T14:27:57;7.00;99.90
13673;DHT22;6909;52.202;9.876;2023-11-21T14:30:25;7.00;99.90
13673;DHT22;6909;52.202;9.876;2023-11-21T14:32:54;6.90;99.90
13673;DHT22;6909;52.202;9.876;2023-11-21T14:35:21;6.80;99.90
13673;DHT22;6909;52.202;9.876;2023-11-21T14:37:48;6.80;99.90
13673;DHT22;6909;52.202;9.876;2023-11-21T14:40:15;6.70;99.90
13673;DHT22;6909;52.202;9.876;2023-11-21T14:42:43;6.70;99.90
13673;DHT22;6909;52.202;9.876;2023-11-21T14:45:13;6.70;99.90
13673;DHT22;6909;52.202;9.876;2023-11-21T14:47:46;6.60;99.90
13673;DHT22;6909;52.202;9.876;2023-11-21T14:50:21;6.60;99.90
13673;DHT22;6909;52.202;9.876;2023-11-21T14:53:10;6.60;99.90
13673;DHT22;6909;52.202;9.876;2023-11-21T14:55:38;6.60;99.90
13673;DHT22;6909;52.202;9.876;2023-11-21T14:58:19;6.50;99.90
13673;DHT22;6909;52.202;9.876;2023-11-21T15:00:53;6.50;99.90
13673;DHT22;6909;52.202;9.876;2023-11-21T15:03:25;6.50;99.90
13673;DHT22;6909;52.202;9.876;2023-11-21T15:06:09;6.50;99.90
13673;DHT22;6909;52.202;9.876;2023-11-21T15:08:50;6.40;99.90
13673;DHT22;6909;52.202;9.876;2023-11-21T15:11:21;6.40;99.90
13673;DHT22;6909;52.202;9.876;2023-11-21T15:13:55;6.30;60.20
13673;DHT22;6909;52.202;9.876;2023-11-21T15:16:21;6.30;1.10
13673;DHT22;6909;52.202;9.876;2023-11-21T15:18:49;6.20;1.00
13673;DHT22;6909;52.202;9.876;2023-11-21T15:21:15;6.20;99.90
13673;DHT22;6909;52.202;9.876;2023-11-21T15:23:42;6.20;99.90
13673;DHT22;6909;52.202;9.876;2023-11-21T15:26:09;6.20;99.90
13673;DHT22;6909;52.202;9.876;2023-11-21T15:28:36;6.20;99.90
13673;DHT22;6909;52.202;9.876;2023-11-21T15:31:03;6.20;99.90
13673;DHT22;6909;52.202;9.876;2023-11-21T15:33:30;6.10;99.90
13673;DHT22;6909;52.202;9.876;2023-11-21T15:35:58;6.10;99.90
13673;DHT22;6909;52.202;9.876;2023-11-21T15:38:25;6.10;99.90
13673;DHT22;6909;52.202;9.876;2023-11-21T15:40:51;6.10;99.90
13673;DHT22;6909;52.202;9.876;2023-11-21T15:43:19;6.10;99.90
13673;DHT22;6909;52.202;9.876;2023-11-21T15:45:46;6.00;99.90
13673;DHT22;6909;52.202;9.876;2023-11-21T15:48:13;6.00;99.90
13673;DHT22;6909;52.202;9.876;2023-11-21T15:50:41;5.80;99.90
13673;DHT22;6909;52.202;9.876;2023-11-21T15:53:10;5.70;99.90
13673;DHT22;6909;52.202;9.876;2023-11-21T15:55:37;5.50;99.90
13673;DHT22;6909;52.202;9.876;2023-11-21T15:58:07;5.50;99.90
13673;DHT22;6909;52.202;9.876;2023-11-21T16:00:34;5.40;7.80
13673;DHT22;6909;52.202;9.876;2023-11-21T16:03:02;5.40;11.20
13673;DHT22;6909;52.202;9.876;2023-11-21T16:05:29;5.40;80.40
13673;DHT22;6909;52.202;9.876;2023-11-21T16:07:56;5.40;75.90
13673;DHT22;6909;52.202;9.876;2023-11-21T16:10:24;5.30;99.10